sensor_id;sensor_type;location;lat;lon;timestamp;noise_LAeq;noise_LA_min;noise_LA_max;noise_LA01;noise_LA95
67294;Laerm;58160;51.434;5.978;2022-09-09T00:00:05;31.09;29.71;40.16;;
67294;Laerm;58160;51.434;5.978;2022-09-09T00:00:17;34.65;29.74;49.04;;
67294;Laerm;58160;51.434;5.978;2022-09-09T00:00:28;31.46;29.49;43.45;;
67294;Laerm;58160;51.434;5.978;2022-09-09T00:01:07;31.92;29.58;47.69;;
67294;Laerm;58160;51.434;5.978;2022-09-09T00:01:37;31.61;29.81;36.64;;
67294;Laerm;58160;51.434;5.978;2022-09-09T00:02:01;31.47;29.89;35.55;;
67294;Laerm;58160;51.434;5.978;2022-09-09T00:02:22;31.45;29.51;41.37;;
67294;Laerm;58160;51.434;5.978;2022-09-09T00:02:33;32.25;29.87;48.33;;
67294;Laerm;58160;51.434;5.978;2022-09-09T00:02:45;31.34;29.69;39.64;;
67294;Laerm;58160;51.434;5.978;2022-09-09T00:03:05;33.28;30.01;47.75;;
67294;Laerm;58160;51.434;5.978;2022-09-09T00:03:19;32.48;30.07;53.05;;
67294;Laerm;58160;51.434;5.978;2022-09-09T00:03:35;31.11;30.00;37.46;;
67294;Laerm;58160;51.434;5.978;2022-09-09T00:03:51;31.78;29.86;43.28;;
67294;Laerm;58160;51.434;5.978;2022-09-09T00:04:05;32.06;30.17;40.24;;
67294;Laerm;58160;51.434;5.978;2022-09-09T00:04:36;31.68;29.89;40.27;;
67294;Laerm;58160;51.434;5.978;2022-09-09T00:05:00;31.39;29.58;35.34;;
67294;Laerm;58160;51.434;5.978;2022-09-09T00:05:29;34.45;30.02;44.52;;
67294;Laerm;58160;51.434;5.978;2022-09-09T00:05:44;34.91;30.23;54.74;;
67294;Laerm;58160;51.434;5.978;2022-09-09T00:06:00;32.51;29.85;46.90;;
67294;Laerm;58160;51.434;5.978;2022-09-09T00:06:17;31.35;29.95;39.75;;
67294;Laerm;58160;51.434;5.978;2022-09-09T00:06:42;32.65;30.18;48.84;;
67294;Laerm;58160;51.434;5.978;2022-09-09T00:07:25;35.84;32.54;45.41;;
67294;Laerm;58160;51.434;5.978;2022-09-09T00:07:48;35.70;31.90;44.15;;
67294;Laerm;58160;51.434;5.978;2022-09-09T00:07:59;35.57;33.06;41.32;;
67294;Laerm;58160;51.434;5.978;2022-09-09T00:08:24;33.92;31.67;40.33;;
67294;Laerm;58160;51.434;5.978;2022-09-09T00:09:24;47.95;37.71;52.90;;
67294;Laerm;58160;51.434;5.978;2022-09-09T00:09:43;51.27;46.63;53.60;;
67294;Laerm;58160;51.434;5.978;2022-09-09T00:10:16;42.33;32.69;50.80;;
67294;Laerm;58160;51.434;5.978;2022-09-09T00:10:29;32.03;30.13;38.55;;
67294;Laerm;58160;51.434;5.978;2022-09-09T00:10:41;31.96;29.76;46.52;;
67294;Laerm;58160;51.434;5.978;2022-09-09T00:10:54;31.84;30.04;40.52;;
67294;Laerm;58160;51.434;5.978;2022-09-09T00:11:08;32.15;30.00;44.79;;
67294;Laerm;58160;51.434;5.978;2022-09-09T00:11:23;31.48;29.93;42.50;;
67294;Laerm;58160;51.434;5.978;2022-09-09T00:11:43;31.49;29.79;40.56;;
67294;Laerm;58160;51.434;5.978;2022-09-09T00:13:11;32.89;30.02;52.39;;
67294;Laerm;58160;51.434;5.978;2022-09-09T00:13:31;31.28;29.78;42.27;;
67294;Laerm;58160;51.434;5.978;2022-09-09T00:13:46;33.10;30.62;42.10;;
67294;Laerm;58160;51.434;5.978;2022-09-09T00:13:57;32.33;30.65;39.00;;
67294;Laerm;58160;51.434;5.978;2022-09-09T00:14:18;38.71;32.01;46.60;;
67294;Laerm;58160;51.434;5.978;2022-09-09T00:14:45;49.28;43.02;52.89;;
67294;Laerm;58160;51.434;5.978;2022-09-09T00:14:59;42.57;33.52;52.09;;
67294;Laerm;58160;51.434;5.978;2022-09-09T00:15:11;33.50;31.56;39.11;;
67294;Laerm;58160;51.434;5.978;2022-09-09T00:15:37;33.45;31.11;47.42;;
67294;Laerm;58160;51.434;5.978;2022-09-09T00:16:07;32.44;30.38;38.05;;
67294;Laerm;58160;51.434;5.978;2022-09-09T00:16:27;31.75;29.76;40.67;;
67294;Laerm;58160;51.434;5.978;2022-09-09T00:16:38;32.11;29.85;46.47;;
67294;Laerm;58160;51.434;5.978;2022-09-09T00:16:53;31.47;29.59;38.84;;
67294;Laerm;58160;51.434;5.978;2022-09-09T00:17:12;32.15;30.36;46.45;;
67294;Laerm;58160;51.434;5.978;2022-09-09T00:17:31;31.71;29.52;44.72;;
67294;Laerm;58160;51.434;5.978;2022-09-09T00:17:48;32.15;29.41;38.38;;
67294;Laerm;58160;51.434;5.978;2022-09-09T00:18:13;31.48;29.69;41.38;;
67294;Laerm;58160;51.434;5.978;2022-09-09T00:18:27;31.22;29.57;42.84;;
67294;Laerm;58160;51.434;5.978;2022-09-09T00:19:31;35.04;30.12;48.79;;
67294;Laerm;58160;51.434;5.978;2022-09-09T00:19:56;33.00;30.87;41.07;;
67294;Laerm;58160;51.434;5.978;2022-09-09T00:20:20;32.62;30.33;40.29;;
67294;Laerm;58160;51.434;5.978;2022-09-09T00:20:42;31.52;29.61;41.90;;
67294;Laerm;58160;51.434;5.978;2022-09-09T00:21:13;32.52;30.25;42.05;;
67294;Laerm;58160;51.434;5.978;2022-09-09T00:22:12;31.23;29.97;37.00;;
67294;Laerm;58160;51.434;5.978;2022-09-09T00:22:24;31.23;29.74;35.60;;
67294;Laerm;58160;51.434;5.978;2022-09-09T00:22:36;31.12;29.71;38.62;;
67294;Laerm;58160;51.434;5.978;2022-09-09T00:22:54;31.21;29.81;37.60;;
67294;Laerm;58160;51.434;5.978;2022-09-09T00:23:11;32.12;29.77;51.63;;
67294;Laerm;58160;51.434;5.978;2022-09-09T00:23:34;31.24;29.80;40.63;;
67294;Laerm;58160;51.434;5.978;2022-09-09T00:23:54;31.36;29.53;40.35;;
67294;Laerm;58160;51.434;5.978;2022-09-09T00:24:08;31.51;29.48;44.01;;
67294;Laerm;58160;51.434;5.978;2022-09-09T00:24:24;31.26;29.63;38.35;;
67294;Laerm;58160;51.434;5.978;2022-09-09T00:24:55;31.43;29.89;44.22;;
67294;Laerm;58160;51.434;5.978;2022-09-09T00:25:14;31.65;29.76;40.13;;
67294;Laerm;58160;51.434;5.978;2022-09-09T00:25:31;31.42;29.76;37.12;;
67294;Laerm;58160;51.434;5.978;2022-09-09T00:26:02;31.24;30.06;36.73;;
67294;Laerm;58160;51.434;5.978;2022-09-09T00:26:30;33.31;29.95;51.41;;
67294;Laerm;58160;51.434;5.978;2022-09-09T00:26:44;40.97;31.95;48.83;;
67294;Laerm;58160;51.434;5.978;2022-09-09T00:26:57;50.63;43.87;54.36;;
67294;Laerm;58160;51.434;5.978;2022-09-09T00:27:41;45.43;35.49;49.66;;
67294;Laerm;58160;51.434;5.978;2022-09-09T00:27:53;34.90;31.98;37.77;;
67294;Laerm;58160;51.434;5.978;2022-09-09T00:28:09;32.72;31.07;37.22;;
67294;Laerm;58160;51.434;5.978;2022-09-09T00:28:24;33.09;30.84;42.87;;
67294;Laerm;58160;51.434;5.978;2022-09-09T00:28:38;32.23;30.48;36.78;;
67294;Laerm;58160;51.434;5.978;2022-09-09T00:29:04;32.25;30.75;38.80;;
67294;Laerm;58160;51.434;5.978;2022-09-09T00:29:44;32.38;29.73;44.02;;
67294;Laerm;58160;51.434;5.978;2022-09-09T00:30:16;31.23;29.40;41.89;;
67294;Laerm;58160;51.434;5.978;2022-09-09T00:30:32;30.99;29.44;38.91;;
67294;Laerm;58160;51.434;5.978;2022-09-09T00:30:44;31.23;29.29;41.84;;
67294;Laerm;58160;51.434;5.978;2022-09-09T00:31:15;31.56;29.45;44.88;;
67294;Laerm;58160;51.434;5.978;2022-09-09T00:31:27;31.84;29.48;43.82;;
67294;Laerm;58160;51.434;5.978;2022-09-09T00:31:38;31.08;29.67;39.37;;
67294;Laerm;58160;51.434;5.978;2022-09-09T00:31:48;31.48;29.69;41.62;;
67294;Laerm;58160;51.434;5.978;2022-09-09T00:32:00;31.05;29.58;39.01;;
67294;Laerm;58160;51.434;5.978;2022-09-09T00:32:16;30.94;29.64;36.65;;
67294;Laerm;58160;51.434;5.978;2022-09-09T00:32:28;31.04;29.68;43.58;;
67294;Laerm;58160;51.434;5.978;2022-09-09T00:32:39;30.96;29.51;37.07;;
67294;Laerm;58160;51.434;5.978;2022-09-09T00:32:50;30.79;29.58;37.76;;
67294;Laerm;58160;51.434;5.978;2022-09-09T00:33:11;30.73;29.58;36.38;;
67294;Laerm;58160;51.434;5.978;2022-09-09T00:33:25;31.02;29.56;38.45;;
67294;Laerm;58160;51.434;5.978;2022-09-09T00:33:36;30.81;29.41;34.17;;
67294;Laerm;58160;51.434;5.978;2022-09-09T00:33:48;31.64;29.62;42.96;;
67294;Laerm;58160;51.434;5.978;2022-09-09T00:34:23;33.03;29.95;45.88;;
67294;Laerm;58160;51.434;5.978;2022-09-09T00:34:34;33.58;30.47;46.70;;
67294;Laerm;58160;51.434;5.978;2022-09-09T00:34:49;34.58;30.90;40.46;;
67294;Laerm;58160;51.434;5.978;2022-09-09T00:35:05;35.53;31.38;40.29;;
67294;Laerm;58160;51.434;5.978;2022-09-09T00:35:30;36.02;31.08;57.31;;
67294;Laerm;58160;51.434;5.978;2022-09-09T00:35:44;34.63;31.38;39.84;;
67294;Laerm;58160;51.434;5.978;2022-09-09T00:35:55;34.67;31.01;53.29;;
67294;Laerm;58160;51.434;5.978;2022-09-09T00:36:09;33.96;31.09;39.78;;
67294;Laerm;58160;51.434;5.978;2022-09-09T00:36:23;32.97;30.90;40.12;;
67294;Laerm;58160;51.434;5.978;2022-09-09T00:36:36;31.72;30.17;37.86;;
67294;Laerm;58160;51.434;5.978;2022-09-09T00:36:48;31.43;29.88;39.01;;
67294;Laerm;58160;51.434;5.978;2022-09-09T00:37:01;31.09;29.31;38.76;;
67294;Laerm;58160;51.434;5.978;2022-09-09T00:37:12;31.04;29.75;36.70;;
67294;Laerm;58160;51.434;5.978;2022-09-09T00:37:24;31.36;29.73;42.77;;
67294;Laerm;58160;51.434;5.978;2022-09-09T00:37:36;33.49;29.98;52.91;;
67294;Laerm;58160;51.434;5.978;2022-09-09T00:37:48;31.48;29.62;43.83;;
67294;Laerm;58160;51.434;5.978;2022-09-09T00:38:01;30.90;29.52;41.36;;
67294;Laerm;58160;51.434;5.978;2022-09-09T00:38:14;30.83;29.29;38.49;;
67294;Laerm;58160;51.434;5.978;2022-09-09T00:38:31;30.91;29.31;40.30;;
67294;Laerm;58160;51.434;5.978;2022-09-09T00:38:45;30.87;29.39;35.45;;
67294;Laerm;58160;51.434;5.978;2022-09-09T00:38:58;30.99;29.46;39.09;;
67294;Laerm;58160;51.434;5.978;2022-09-09T00:39:12;31.38;29.64;41.29;;
67294;Laerm;58160;51.434;5.978;2022-09-09T00:39:34;32.29;29.91;44.28;;
67294;Laerm;58160;51.434;5.978;2022-09-09T00:39:47;33.94;30.22;50.83;;
67294;Laerm;58160;51.434;5.978;2022-09-09T00:39:59;35.91;30.50;47.56;;
67294;Laerm;58160;51.434;5.978;2022-09-09T00:40:17;34.95;31.29;40.86;;
67294;Laerm;58160;51.434;5.978;2022-09-09T00:40:35;31.98;29.99;39.77;;
67294;Laerm;58160;51.434;5.978;2022-09-09T00:40:51;31.12;29.40;37.74;;
67294;Laerm;58160;51.434;5.978;2022-09-09T00:41:21;31.05;29.84;37.02;;
67294;Laerm;58160;51.434;5.978;2022-09-09T00:41:50;31.28;29.52;42.74;;
67294;Laerm;58160;51.434;5.978;2022-09-09T00:42:21;31.18;29.52;38.00;;
67294;Laerm;58160;51.434;5.978;2022-09-09T00:42:39;31.34;29.70;37.48;;
67294;Laerm;58160;51.434;5.978;2022-09-09T00:42:53;32.91;29.83;50.16;;
67294;Laerm;58160;51.434;5.978;2022-09-09T00:43:25;33.58;30.36;37.87;;
67294;Laerm;58160;51.434;5.978;2022-09-09T00:43:37;36.22;31.09;46.51;;
67294;Laerm;58160;51.434;5.978;2022-09-09T00:44:31;36.77;32.18;42.40;;
67294;Laerm;58160;51.434;5.978;2022-09-09T00:44:31;35.39;32.36;39.01;;
67294;Laerm;58160;51.434;5.978;2022-09-09T00:45:32;33.34;30.82;41.07;;
67294;Laerm;58160;51.434;5.978;2022-09-09T00:46:53;31.76;29.83;42.59;;
67294;Laerm;58160;51.434;5.978;2022-09-09T00:47:12;31.40;29.54;41.03;;
67294;Laerm;58160;51.434;5.978;2022-09-09T00:47:44;31.04;29.64;38.34;;
67294;Laerm;58160;51.434;5.978;2022-09-09T00:47:55;31.58;29.79;45.67;;
67294;Laerm;58160;51.434;5.978;2022-09-09T00:48:10;30.95;29.62;34.31;;
67294;Laerm;58160;51.434;5.978;2022-09-09T00:48:22;31.53;30.04;39.87;;
67294;Laerm;58160;51.434;5.978;2022-09-09T00:49:08;31.36;30.06;36.83;;
67294;Laerm;58160;51.434;5.978;2022-09-09T00:50:13;31.59;30.12;40.32;;
67294;Laerm;58160;51.434;5.978;2022-09-09T00:50:39;31.82;30.04;35.47;;
67294;Laerm;58160;51.434;5.978;2022-09-09T00:50:55;31.30;29.61;44.05;;
67294;Laerm;58160;51.434;5.978;2022-09-09T00:51:55;35.59;31.32;48.37;;
67294;Laerm;58160;51.434;5.978;2022-09-09T00:54:08;33.78;30.77;46.30;;
67294;Laerm;58160;51.434;5.978;2022-09-09T00:54:37;32.29;30.01;49.44;;
67294;Laerm;58160;51.434;5.978;2022-09-09T00:55:41;31.24;29.87;39.40;;
67294;Laerm;58160;51.434;5.978;2022-09-09T00:56:08;32.43;29.67;52.76;;
67294;Laerm;58160;51.434;5.978;2022-09-09T00:56:23;31.10;29.55;41.43;;
67294;Laerm;58160;51.434;5.978;2022-09-09T00:56:40;30.98;29.74;38.81;;
67294;Laerm;58160;51.434;5.978;2022-09-09T00:56:59;31.18;29.72;38.87;;
67294;Laerm;58160;51.434;5.978;2022-09-09T00:57:32;31.01;29.52;38.22;;
67294;Laerm;58160;51.434;5.978;2022-09-09T00:57:43;31.55;29.83;40.18;;
67294;Laerm;58160;51.434;5.978;2022-09-09T00:57:56;31.65;30.18;40.04;;
67294;Laerm;58160;51.434;5.978;2022-09-09T00:58:06;31.32;30.00;34.29;;
67294;Laerm;58160;51.434;5.978;2022-09-09T00:58:18;31.20;29.83;35.67;;
67294;Laerm;58160;51.434;5.978;2022-09-09T00:58:28;31.31;30.02;36.40;;
67294;Laerm;58160;51.434;5.978;2022-09-09T00:58:40;31.18;29.98;37.75;;
67294;Laerm;58160;51.434;5.978;2022-09-09T00:59:03;30.94;29.77;33.15;;
67294;Laerm;58160;51.434;5.978;2022-09-09T00:59:34;31.05;29.26;40.44;;
67294;Laerm;58160;51.434;5.978;2022-09-09T01:00:14;31.04;29.66;40.18;;
67294;Laerm;58160;51.434;5.978;2022-09-09T01:00:34;32.75;29.39;44.48;;
67294;Laerm;58160;51.434;5.978;2022-09-09T01:01:03;30.95;29.54;37.95;;
67294;Laerm;58160;51.434;5.978;2022-09-09T01:01:16;31.00;29.40;35.96;;
67294;Laerm;58160;51.434;5.978;2022-09-09T01:01:27;31.30;29.86;40.91;;
67294;Laerm;58160;51.434;5.978;2022-09-09T01:01:38;32.26;29.84;49.71;;
67294;Laerm;58160;51.434;5.978;2022-09-09T01:01:49;31.09;29.55;35.35;;
67294;Laerm;58160;51.434;5.978;2022-09-09T01:02:00;31.00;29.69;37.69;;
67294;Laerm;58160;51.434;5.978;2022-09-09T01:03:39;32.50;29.59;55.90;;
67294;Laerm;58160;51.434;5.978;2022-09-09T01:03:54;30.86;29.55;36.17;;
67294;Laerm;58160;51.434;5.978;2022-09-09T01:04:08;31.26;29.74;40.34;;
67294;Laerm;58160;51.434;5.978;2022-09-09T01:04:23;31.19;29.70;38.73;;
67294;Laerm;58160;51.434;5.978;2022-09-09T01:04:36;30.88;29.64;35.42;;
67294;Laerm;58160;51.434;5.978;2022-09-09T01:04:46;33.74;29.94;41.32;;
67294;Laerm;58160;51.434;5.978;2022-09-09T01:05:00;31.29;29.74;37.60;;
67294;Laerm;58160;51.434;5.978;2022-09-09T01:05:33;31.24;29.24;39.97;;
67294;Laerm;58160;51.434;5.978;2022-09-09T01:06:10;31.41;29.87;40.70;;
67294;Laerm;58160;51.434;5.978;2022-09-09T01:06:22;31.67;30.14;40.93;;
67294;Laerm;58160;51.434;5.978;2022-09-09T01:06:36;31.21;30.00;35.08;;
67294;Laerm;58160;51.434;5.978;2022-09-09T01:06:49;31.72;29.75;40.30;;
67294;Laerm;58160;51.434;5.978;2022-09-09T01:07:07;34.67;30.74;45.43;;
67294;Laerm;58160;51.434;5.978;2022-09-09T01:07:22;32.32;30.18;41.35;;
67294;Laerm;58160;51.434;5.978;2022-09-09T01:07:33;35.32;32.09;42.42;;
67294;Laerm;58160;51.434;5.978;2022-09-09T01:07:44;49.41;36.25;58.35;;
67294;Laerm;58160;51.434;5.978;2022-09-09T01:07:57;33.21;30.39;44.11;;
67294;Laerm;58160;51.434;5.978;2022-09-09T01:08:11;31.30;29.72;38.98;;
67294;Laerm;58160;51.434;5.978;2022-09-09T01:08:48;31.49;29.90;40.66;;
67294;Laerm;58160;51.434;5.978;2022-09-09T01:09:42;33.80;30.40;56.39;;
67294;Laerm;58160;51.434;5.978;2022-09-09T01:09:59;34.06;30.24;41.35;;
67294;Laerm;58160;51.434;5.978;2022-09-09T01:10:17;36.36;31.57;43.20;;
67294;Laerm;58160;51.434;5.978;2022-09-09T01:10:37;36.19;32.36;40.59;;
67294;Laerm;58160;51.434;5.978;2022-09-09T01:10:52;36.01;31.84;43.99;;
67294;Laerm;58160;51.434;5.978;2022-09-09T01:11:03;35.57;31.71;48.15;;
67294;Laerm;58160;51.434;5.978;2022-09-09T01:11:20;33.76;30.71;37.77;;
67294;Laerm;58160;51.434;5.978;2022-09-09T01:12:16;31.46;29.61;44.38;;
67294;Laerm;58160;51.434;5.978;2022-09-09T01:12:34;30.95;29.61;37.16;;
67294;Laerm;58160;51.434;5.978;2022-09-09T01:12:45;31.12;29.41;42.11;;
67294;Laerm;58160;51.434;5.978;2022-09-09T01:12:58;31.04;29.72;38.39;;
67294;Laerm;58160;51.434;5.978;2022-09-09T01:13:15;32.08;29.53;51.09;;
67294;Laerm;58160;51.434;5.978;2022-09-09T01:13:30;33.37;29.90;42.41;;
67294;Laerm;58160;51.434;5.978;2022-09-09T01:13:41;31.96;30.07;36.83;;
67294;Laerm;58160;51.434;5.978;2022-09-09T01:14:27;31.21;29.86;34.10;;
67294;Laerm;58160;51.434;5.978;2022-09-09T01:14:48;31.52;29.89;41.91;;
67294;Laerm;58160;51.434;5.978;2022-09-09T01:15:02;30.96;29.69;34.56;;
67294;Laerm;58160;51.434;5.978;2022-09-09T01:15:24;31.04;29.45;40.53;;
67294;Laerm;58160;51.434;5.978;2022-09-09T01:15:36;31.62;29.63;40.00;;
67294;Laerm;58160;51.434;5.978;2022-09-09T01:15:48;33.09;30.76;38.80;;
67294;Laerm;58160;51.434;5.978;2022-09-09T01:16:00;32.07;30.67;35.15;;
67294;Laerm;58160;51.434;5.978;2022-09-09T01:16:12;32.23;30.74;36.49;;
67294;Laerm;58160;51.434;5.978;2022-09-09T01:16:23;33.53;31.50;35.54;;
67294;Laerm;58160;51.434;5.978;2022-09-09T01:16:33;42.43;34.36;48.40;;
67294;Laerm;58160;51.434;5.978;2022-09-09T01:16:44;48.39;44.19;52.43;;
67294;Laerm;58160;51.434;5.978;2022-09-09T01:16:56;48.75;46.45;50.88;;
67294;Laerm;58160;51.434;5.978;2022-09-09T01:17:31;38.37;33.07;50.12;;
67294;Laerm;58160;51.434;5.978;2022-09-09T01:18:02;35.87;32.32;43.76;;
67294;Laerm;58160;51.434;5.978;2022-09-09T01:18:15;35.57;32.29;44.62;;
67294;Laerm;58160;51.434;5.978;2022-09-09T01:18:31;35.10;32.08;40.74;;
67294;Laerm;58160;51.434;5.978;2022-09-09T01:18:45;37.89;31.44;43.83;;
67294;Laerm;58160;51.434;5.978;2022-09-09T01:18:56;50.86;31.49;61.37;;
67294;Laerm;58160;51.434;5.978;2022-09-09T01:19:08;51.21;31.47;61.51;;
67294;Laerm;58160;51.434;5.978;2022-09-09T01:19:36;33.83;30.37;40.49;;
67294;Laerm;58160;51.434;5.978;2022-09-09T01:20:12;32.44;30.23;43.97;;
67294;Laerm;58160;51.434;5.978;2022-09-09T01:20:24;32.56;30.30;36.71;;
67294;Laerm;58160;51.434;5.978;2022-09-09T01:21:42;49.79;37.09;57.39;;
67294;Laerm;58160;51.434;5.978;2022-09-09T01:22:19;50.48;46.49;54.43;;
67294;Laerm;58160;51.434;5.978;2022-09-09T01:22:44;35.39;33.07;40.02;;
67294;Laerm;58160;51.434;5.978;2022-09-09T01:23:02;35.71;32.86;50.32;;
67294;Laerm;58160;51.434;5.978;2022-09-09T01:23:27;34.64;32.58;40.33;;
67294;Laerm;58160;51.434;5.978;2022-09-09T01:23:54;33.68;31.31;46.91;;
67294;Laerm;58160;51.434;5.978;2022-09-09T01:24:27;32.42;30.69;40.57;;
67294;Laerm;58160;51.434;5.978;2022-09-09T01:25:08;32.33;30.02;44.77;;
67294;Laerm;58160;51.434;5.978;2022-09-09T01:25:15;32.09;30.13;39.68;;
67294;Laerm;58160;51.434;5.978;2022-09-09T01:25:56;31.61;30.19;36.79;;
67294;Laerm;58160;51.434;5.978;2022-09-09T01:26:16;31.85;29.65;46.16;;
67294;Laerm;58160;51.434;5.978;2022-09-09T01:26:37;32.20;29.25;51.96;;
67294;Laerm;58160;51.434;5.978;2022-09-09T01:26:51;30.91;29.56;36.75;;
67294;Laerm;58160;51.434;5.978;2022-09-09T01:27:02;31.15;29.44;41.08;;
67294;Laerm;58160;51.434;5.978;2022-09-09T01:27:14;30.93;29.52;40.21;;
67294;Laerm;58160;51.434;5.978;2022-09-09T01:27:25;31.23;29.69;45.07;;
67294;Laerm;58160;51.434;5.978;2022-09-09T01:27:35;31.52;29.90;42.20;;
67294;Laerm;58160;51.434;5.978;2022-09-09T01:27:46;31.26;29.71;38.06;;
67294;Laerm;58160;51.434;5.978;2022-09-09T01:28:01;31.81;29.43;41.80;;
67294;Laerm;58160;51.434;5.978;2022-09-09T01:28:14;31.10;29.73;39.37;;
67294;Laerm;58160;51.434;5.978;2022-09-09T01:28:27;46.15;30.13;56.35;;
67294;Laerm;58160;51.434;5.978;2022-09-09T01:28:38;41.17;30.94;53.42;;
67294;Laerm;58160;51.434;5.978;2022-09-09T01:28:49;35.16;31.28;40.42;;
67294;Laerm;58160;51.434;5.978;2022-09-09T01:29:02;34.20;30.84;40.60;;
67294;Laerm;58160;51.434;5.978;2022-09-09T01:29:17;32.40;30.22;39.34;;
67294;Laerm;58160;51.434;5.978;2022-09-09T01:29:28;31.81;30.09;37.48;;
67294;Laerm;58160;51.434;5.978;2022-09-09T01:29:39;32.21;30.11;41.07;;
67294;Laerm;58160;51.434;5.978;2022-09-09T01:29:49;31.98;29.70;42.84;;
67294;Laerm;58160;51.434;5.978;2022-09-09T01:29:59;31.22;29.83;33.40;;
67294;Laerm;58160;51.434;5.978;2022-09-09T01:30:11;31.65;29.86;36.30;;
67294;Laerm;58160;51.434;5.978;2022-09-09T01:30:22;31.11;29.69;36.39;;
67294;Laerm;58160;51.434;5.978;2022-09-09T01:30:33;31.14;29.59;36.29;;
67294;Laerm;58160;51.434;5.978;2022-09-09T01:30:45;31.15;29.52;40.23;;
67294;Laerm;58160;51.434;5.978;2022-09-09T01:30:55;31.04;29.28;38.07;;
67294;Laerm;58160;51.434;5.978;2022-09-09T01:31:06;35.28;29.56;58.02;;
67294;Laerm;58160;51.434;5.978;2022-09-09T01:31:23;30.96;29.35;38.91;;
67294;Laerm;58160;51.434;5.978;2022-09-09T01:31:41;30.83;29.29;38.61;;
67294;Laerm;58160;51.434;5.978;2022-09-09T01:32:35;30.79;29.65;36.91;;
67294;Laerm;58160;51.434;5.978;2022-09-09T01:32:45;32.24;29.09;44.30;;
67294;Laerm;58160;51.434;5.978;2022-09-09T01:32:56;31.47;29.55;43.12;;
67294;Laerm;58160;51.434;5.978;2022-09-09T01:33:18;32.15;30.46;37.00;;
67294;Laerm;58160;51.434;5.978;2022-09-09T01:33:29;33.22;30.51;41.87;;
67294;Laerm;58160;51.434;5.978;2022-09-09T01:33:39;36.62;31.74;46.68;;
67294;Laerm;58160;51.434;5.978;2022-09-09T01:33:50;40.23;34.07;48.75;;
67294;Laerm;58160;51.434;5.978;2022-09-09T01:34:00;41.87;34.32;49.09;;
67294;Laerm;58160;51.434;5.978;2022-09-09T01:34:14;41.17;34.41;46.55;;
67294;Laerm;58160;51.434;5.978;2022-09-09T01:34:26;40.52;33.52;46.12;;
67294;Laerm;58160;51.434;5.978;2022-09-09T01:34:38;39.19;33.09;46.72;;
67294;Laerm;58160;51.434;5.978;2022-09-09T01:34:50;38.54;32.49;46.00;;
67294;Laerm;58160;51.434;5.978;2022-09-09T01:35:02;37.29;32.21;46.91;;
67294;Laerm;58160;51.434;5.978;2022-09-09T01:36:26;34.64;30.76;49.00;;
67294;Laerm;58160;51.434;5.978;2022-09-09T01:36:39;34.08;29.91;40.15;;
67294;Laerm;58160;51.434;5.978;2022-09-09T01:36:58;33.38;30.51;38.12;;
67294;Laerm;58160;51.434;5.978;2022-09-09T01:37:10;31.30;29.79;42.64;;
67294;Laerm;58160;51.434;5.978;2022-09-09T01:37:21;32.19;29.65;44.72;;
67294;Laerm;58160;51.434;5.978;2022-09-09T01:37:31;31.09;29.66;34.90;;
67294;Laerm;58160;51.434;5.978;2022-09-09T01:37:42;31.04;29.81;32.89;;
67294;Laerm;58160;51.434;5.978;2022-09-09T01:37:52;32.66;30.02;51.51;;
67294;Laerm;58160;51.434;5.978;2022-09-09T01:38:02;38.45;30.14;54.78;;
67294;Laerm;58160;51.434;5.978;2022-09-09T01:38:13;38.05;30.09;47.80;;
67294;Laerm;58160;51.434;5.978;2022-09-09T01:38:24;31.72;29.77;44.22;;
67294;Laerm;58160;51.434;5.978;2022-09-09T01:38:35;31.56;29.90;45.23;;
67294;Laerm;58160;51.434;5.978;2022-09-09T01:38:46;30.92;29.50;36.28;;
67294;Laerm;58160;51.434;5.978;2022-09-09T01:38:56;31.03;29.60;39.33;;
67294;Laerm;58160;51.434;5.978;2022-09-09T01:39:07;30.85;29.60;40.25;;
67294;Laerm;58160;51.434;5.978;2022-09-09T01:39:17;30.79;29.47;39.48;;
67294;Laerm;58160;51.434;5.978;2022-09-09T01:39:28;30.84;29.52;38.87;;
67294;Laerm;58160;51.434;5.978;2022-09-09T01:39:39;30.79;29.46;37.16;;
67294;Laerm;58160;51.434;5.978;2022-09-09T01:39:50;31.06;29.84;37.73;;
67294;Laerm;58160;51.434;5.978;2022-09-09T01:40:01;31.54;29.69;42.24;;
67294;Laerm;58160;51.434;5.978;2022-09-09T01:40:11;31.00;29.43;41.96;;
67294;Laerm;58160;51.434;5.978;2022-09-09T01:40:22;31.47;29.57;46.01;;
67294;Laerm;58160;51.434;5.978;2022-09-09T01:40:32;30.83;29.45;37.75;;
67294;Laerm;58160;51.434;5.978;2022-09-09T01:40:43;30.85;29.59;38.72;;
67294;Laerm;58160;51.434;5.978;2022-09-09T01:40:54;30.74;29.50;37.22;;
67294;Laerm;58160;51.434;5.978;2022-09-09T01:41:04;30.81;29.75;33.97;;
67294;Laerm;58160;51.434;5.978;2022-09-09T01:41:14;31.02;29.83;36.51;;
67294;Laerm;58160;51.434;5.978;2022-09-09T01:41:25;30.72;29.36;36.00;;
67294;Laerm;58160;51.434;5.978;2022-09-09T01:41:35;30.87;29.60;41.04;;
67294;Laerm;58160;51.434;5.978;2022-09-09T01:41:45;31.19;29.85;36.74;;
67294;Laerm;58160;51.434;5.978;2022-09-09T01:41:56;31.31;29.78;35.47;;
67294;Laerm;58160;51.434;5.978;2022-09-09T01:42:07;31.25;29.87;36.21;;
67294;Laerm;58160;51.434;5.978;2022-09-09T01:42:19;31.84;30.02;39.66;;
67294;Laerm;58160;51.434;5.978;2022-09-09T01:42:29;32.37;30.27;42.74;;
67294;Laerm;58160;51.434;5.978;2022-09-09T01:42:39;33.40;30.46;39.57;;
67294;Laerm;58160;51.434;5.978;2022-09-09T01:42:49;33.92;30.57;39.28;;
67294;Laerm;58160;51.434;5.978;2022-09-09T01:43:00;34.81;31.60;40.13;;
67294;Laerm;58160;51.434;5.978;2022-09-09T01:43:10;34.02;31.08;40.32;;
67294;Laerm;58160;51.434;5.978;2022-09-09T01:43:21;34.19;30.72;39.16;;
67294;Laerm;58160;51.434;5.978;2022-09-09T01:43:32;35.28;31.35;41.88;;
67294;Laerm;58160;51.434;5.978;2022-09-09T01:43:42;35.06;30.85;41.07;;
67294;Laerm;58160;51.434;5.978;2022-09-09T01:43:54;34.73;30.88;40.04;;
67294;Laerm;58160;51.434;5.978;2022-09-09T01:44:05;34.19;30.49;43.48;;
67294;Laerm;58160;51.434;5.978;2022-09-09T01:44:17;32.53;30.33;36.73;;
67294;Laerm;58160;51.434;5.978;2022-09-09T01:44:28;32.38;30.18;36.44;;
67294;Laerm;58160;51.434;5.978;2022-09-09T01:44:39;31.92;30.06;35.63;;
67294;Laerm;58160;51.434;5.978;2022-09-09T01:44:50;31.75;30.04;37.80;;
67294;Laerm;58160;51.434;5.978;2022-09-09T01:45:00;31.66;29.92;43.03;;
67294;Laerm;58160;51.434;5.978;2022-09-09T01:45:11;31.24;29.84;33.35;;
67294;Laerm;58160;51.434;5.978;2022-09-09T01:45:21;31.28;29.69;36.37;;
67294;Laerm;58160;51.434;5.978;2022-09-09T01:45:32;31.36;29.85;35.87;;
67294;Laerm;58160;51.434;5.978;2022-09-09T01:45:42;31.69;30.19;38.14;;
67294;Laerm;58160;51.434;5.978;2022-09-09T01:45:55;32.17;30.30;39.95;;
67294;Laerm;58160;51.434;5.978;2022-09-09T01:46:05;32.74;30.56;37.83;;
67294;Laerm;58160;51.434;5.978;2022-09-09T01:46:16;31.42;29.93;37.29;;
67294;Laerm;58160;51.434;5.978;2022-09-09T01:46:27;31.45;30.15;38.70;;
67294;Laerm;58160;51.434;5.978;2022-09-09T01:46:38;31.43;29.68;35.37;;
67294;Laerm;58160;51.434;5.978;2022-09-09T01:46:49;31.63;29.96;40.41;;
67294;Laerm;58160;51.434;5.978;2022-09-09T01:46:59;33.31;30.10;49.91;;
67294;Laerm;58160;51.434;5.978;2022-09-09T01:47:09;32.55;29.99;44.80;;
67294;Laerm;58160;51.434;5.978;2022-09-09T01:47:20;32.66;30.58;42.43;;
67294;Laerm;58160;51.434;5.978;2022-09-09T01:47:30;32.59;30.49;37.75;;